createdAt,value
2023-09-09T00:00:52.405Z,9.88
2023-09-09T00:03:20.916Z,9.55
2023-09-09T00:05:47.822Z,9.48
2023-09-09T00:08:16.772Z,8.63
2023-09-09T00:10:43.600Z,8.55
2023-09-09T00:13:11.456Z,9.88
2023-09-09T00:15:38.770Z,10.07
2023-09-09T00:18:06.170Z,9.00
2023-09-09T00:20:38.054Z,8.07
2023-09-09T00:23:10.845Z,8.77
2023-09-09T00:25:39.416Z,8.87
2023-09-09T00:28:08.878Z,8.70
2023-09-09T00:30:35.800Z,8.95
2023-09-09T00:33:03.982Z,9.25
2023-09-09T00:35:33.833Z,8.85
2023-09-09T00:38:01.538Z,8.23
2023-09-09T00:40:28.820Z,8.40
2023-09-09T00:42:55.664Z,9.20
2023-09-09T00:45:22.460Z,8.32
2023-09-09T00:47:49.806Z,8.32
2023-09-09T00:50:17.055Z,8.75
2023-09-09T00:52:45.007Z,8.00
2023-09-09T00:55:12.931Z,9.52
2023-09-09T00:57:39.996Z,8.02
2023-09-09T01:00:10.643Z,9.05
2023-09-09T01:02:42.729Z,9.70
2023-09-09T01:05:11.672Z,8.60
2023-09-09T01:07:50.147Z,8.82
2023-09-09T01:10:19.390Z,9.07
2023-09-09T01:12:47.122Z,8.30
2023-09-09T01:15:15.741Z,8.82
2023-09-09T01:17:43.458Z,7.97
2023-09-09T01:20:16.860Z,7.65
2023-09-09T01:22:46.057Z,8.60
2023-09-09T01:25:13.987Z,8.40
2023-09-09T01:27:41.751Z,9.60
2023-09-09T01:30:10.372Z,8.23
2023-09-09T01:32:37.821Z,8.23
2023-09-09T01:35:05.993Z,9.27
2023-09-09T01:37:34.033Z,8.20
2023-09-09T01:40:13.022Z,8.35
2023-09-09T01:42:41.440Z,8.05
2023-09-09T01:45:09.152Z,7.60
2023-09-09T01:47:36.451Z,8.30
2023-09-09T01:50:04.261Z,8.40
2023-09-09T01:52:31.454Z,8.05
2023-09-09T01:54:58.270Z,8.50
2023-09-09T01:57:27.820Z,7.80
2023-09-09T01:59:55.371Z,9.27
2023-09-09T02:02:22.808Z,7.65
2023-09-09T02:04:50.286Z,9.52
2023-09-09T02:07:17.171Z,8.38
2023-09-09T02:09:44.368Z,8.07
2023-09-09T02:12:11.519Z,7.65
2023-09-09T02:14:38.398Z,7.80
2023-09-09T02:17:06.252Z,8.10
2023-09-09T02:19:33.552Z,8.90
2023-09-09T02:22:00.410Z,8.32
2023-09-09T02:24:27.261Z,7.82
2023-09-09T02:26:54.480Z,9.25
2023-09-09T02:29:21.472Z,8.23
2023-09-09T02:31:48.364Z,8.02
2023-09-09T02:34:15.109Z,8.23
2023-09-09T02:37:05.369Z,8.70
2023-09-09T02:39:32.148Z,8.80
2023-09-09T02:41:58.907Z,8.75
2023-09-09T02:44:26.148Z,8.02
2023-09-09T02:46:52.916Z,9.18
2023-09-09T02:49:20.111Z,8.43
2023-09-09T02:51:47.324Z,8.07
2023-09-09T02:54:14.467Z,7.85
2023-09-09T02:56:41.303Z,8.45
2023-09-09T02:59:08.473Z,8.13
2023-09-09T03:01:35.299Z,8.70
2023-09-09T03:04:02.515Z,9.55
2023-09-09T03:06:29.367Z,8.38
2023-09-09T03:08:56.613Z,7.97
2023-09-09T03:11:23.428Z,8.85
2023-09-09T03:13:50.249Z,7.45
2023-09-09T03:16:17.461Z,9.35
2023-09-09T03:18:44.379Z,8.90
2023-09-09T03:21:12.448Z,8.20
2023-09-09T03:23:39.645Z,9.35
2023-09-09T03:26:06.714Z,8.10
2023-09-09T03:28:33.532Z,10.00
2023-09-09T03:31:01.081Z,9.35
2023-09-09T03:33:28.762Z,8.68
2023-09-09T03:35:55.781Z,8.55
2023-09-09T03:38:22.603Z,8.18
2023-09-09T03:40:49.563Z,8.05
2023-09-09T03:43:16.474Z,8.60
2023-09-09T03:45:43.263Z,8.88
2023-09-09T03:48:10.565Z,8.75
2023-09-09T03:50:37.469Z,8.23
2023-09-09T03:53:04.417Z,8.57
2023-09-09T03:55:33.738Z,8.73
2023-09-09T03:58:00.518Z,8.75
2023-09-09T04:00:27.531Z,7.95
2023-09-09T04:02:54.429Z,9.13
2023-09-09T04:05:21.276Z,8.85
2023-09-09T04:07:48.077Z,9.05
2023-09-09T04:10:14.907Z,8.52
2023-09-09T04:12:41.853Z,9.05
2023-09-09T04:15:09.864Z,8.52
2023-09-09T04:17:36.946Z,9.18
2023-09-09T04:20:06.571Z,9.70
2023-09-09T04:22:33.595Z,9.63
2023-09-09T04:25:00.386Z,9.43
2023-09-09T04:27:29.169Z,9.38
2023-09-09T04:29:56.438Z,10.13
2023-09-09T04:32:23.299Z,9.98
2023-09-09T04:34:50.102Z,8.82
2023-09-09T04:37:17.326Z,9.75
2023-09-09T04:39:44.565Z,13.13
2023-09-09T04:42:12.511Z,9.93
2023-09-09T04:44:39.769Z,8.88
2023-09-09T04:47:06.957Z,9.52
2023-09-09T04:49:33.778Z,9.95
2023-09-09T04:52:00.882Z,9.77
2023-09-09T04:54:27.623Z,10.55
2023-09-09T04:56:54.436Z,11.85
2023-09-09T04:59:21.183Z,10.02
2023-09-09T05:01:48.109Z,9.77
2023-09-09T05:04:15.078Z,10.10
2023-09-09T05:06:41.938Z,9.57
2023-09-09T05:09:08.855Z,8.98
2023-09-09T05:11:35.694Z,10.55
2023-09-09T05:14:02.482Z,10.98
2023-09-09T05:16:30.692Z,10.07
2023-09-09T05:18:57.709Z,10.18
2023-09-09T05:21:24.576Z,9.68
2023-09-09T05:23:51.770Z,8.90
2023-09-09T05:26:18.540Z,10.27
2023-09-09T05:28:45.588Z,9.13
2023-09-09T05:31:14.069Z,9.27
2023-09-09T05:33:42.833Z,9.90
2023-09-09T05:36:10.551Z,14.02
2023-09-09T05:38:37.588Z,10.77
2023-09-09T05:41:04.405Z,9.55
2023-09-09T05:43:32.346Z,9.82
2023-09-09T05:46:01.472Z,10.38
2023-09-09T05:48:28.906Z,9.40
2023-09-09T05:50:56.782Z,9.43
2023-09-09T05:53:24.052Z,11.57
2023-09-09T05:55:51.501Z,10.20
2023-09-09T05:58:18.869Z,9.77
2023-09-09T06:00:46.049Z,10.13
2023-09-09T06:03:13.283Z,9.98
2023-09-09T06:05:40.545Z,10.68
2023-09-09T06:08:07.574Z,9.88
2023-09-09T06:10:34.514Z,15.20
2023-09-09T06:13:01.368Z,12.73
2023-09-09T06:15:28.518Z,10.15
2023-09-09T06:17:58.135Z,10.60
2023-09-09T06:20:24.913Z,10.50
2023-09-09T06:22:52.106Z,10.38
2023-09-09T06:25:19.217Z,9.88
2023-09-09T06:27:45.985Z,9.75
2023-09-09T06:30:12.916Z,8.80
2023-09-09T06:32:39.954Z,9.18
2023-09-09T06:35:08.171Z,9.50
2023-09-09T06:37:35.054Z,8.77
2023-09-09T06:40:01.986Z,8.95
2023-09-09T06:42:29.249Z,9.48
2023-09-09T06:44:56.308Z,9.48
2023-09-09T06:47:23.140Z,9.95
2023-09-09T06:49:51.866Z,9.18
2023-09-09T06:52:18.787Z,8.80
2023-09-09T06:54:46.037Z,9.27
2023-09-09T06:57:12.932Z,9.00
2023-09-09T06:59:41.095Z,8.07
2023-09-09T07:02:08.136Z,9.40
2023-09-09T07:04:36.352Z,10.60
2023-09-09T07:07:12.797Z,10.23
2023-09-09T07:09:41.489Z,8.73
2023-09-09T07:12:11.712Z,9.15
2023-09-09T07:14:41.737Z,10.55
2023-09-09T07:17:09.344Z,9.60
2023-09-09T07:19:36.534Z,10.50
2023-09-09T07:22:03.876Z,8.05
2023-09-09T07:24:30.719Z,9.80
2023-09-09T07:27:00.996Z,9.30
2023-09-09T07:29:28.563Z,7.30
2023-09-09T07:31:55.778Z,8.50
2023-09-09T07:34:22.681Z,8.88
2023-09-09T07:36:49.435Z,8.25
2023-09-09T07:39:16.712Z,8.18
2023-09-09T07:41:43.498Z,8.13
2023-09-09T07:44:10.594Z,7.55
2023-09-09T07:46:38.472Z,7.30
2023-09-09T07:49:05.286Z,7.82
2023-09-09T07:51:32.517Z,9.73
2023-09-09T07:53:59.715Z,7.25
2023-09-09T07:56:27.117Z,7.05
2023-09-09T07:58:54.319Z,8.85
2023-09-09T08:01:21.182Z,8.20
2023-09-09T08:03:48.545Z,7.00
2023-09-09T08:06:15.788Z,6.88
2023-09-09T08:08:42.996Z,6.70
2023-09-09T08:11:10.787Z,6.93
2023-09-09T08:13:38.234Z,6.95
2023-09-09T08:16:05.833Z,6.63
2023-09-09T08:18:32.797Z,6.47
2023-09-09T08:21:00.168Z,6.68
2023-09-09T08:23:27.485Z,6.10
2023-09-09T08:25:54.693Z,6.65
2023-09-09T08:28:21.910Z,6.45
2023-09-09T08:30:49.153Z,8.15
2023-09-09T08:33:16.371Z,7.70
2023-09-09T08:35:44.443Z,5.75
2023-09-09T08:38:11.218Z,6.60
2023-09-09T08:41:05.989Z,7.20
2023-09-09T08:44:19.549Z,6.13
2023-09-09T08:46:46.344Z,5.63
2023-09-09T08:49:15.272Z,5.57
2023-09-09T08:51:51.285Z,6.18
2023-09-09T08:54:18.329Z,5.50
2023-09-09T08:56:46.787Z,7.22
2023-09-09T08:59:14.780Z,5.40
2023-09-09T09:01:42.818Z,6.65
2023-09-09T09:04:11.525Z,5.60
2023-09-09T09:06:39.422Z,5.88
2023-09-09T09:09:06.617Z,5.38
2023-09-09T09:11:33.798Z,7.35
2023-09-09T09:14:09.541Z,5.60
2023-09-09T09:16:45.326Z,5.47
2023-09-09T09:19:28.689Z,5.82
2023-09-09T09:21:57.755Z,6.07
2023-09-09T09:24:29.282Z,5.60
2023-09-09T09:26:56.841Z,5.80
2023-09-09T09:29:23.816Z,5.60
2023-09-09T09:31:55.698Z,4.93
2023-09-09T09:34:34.784Z,6.82
2023-09-09T09:37:17.846Z,5.28
2023-09-09T09:39:46.561Z,5.55
2023-09-09T09:42:14.666Z,6.70
2023-09-09T09:44:41.567Z,5.75
2023-09-09T09:47:10.270Z,5.75
2023-09-09T09:49:39.112Z,4.60
2023-09-09T09:52:08.481Z,6.60
2023-09-09T09:54:37.584Z,6.45
2023-09-09T09:57:06.630Z,4.90
2023-09-09T09:59:36.689Z,5.10
2023-09-09T10:02:06.786Z,7.70
2023-09-09T10:04:43.704Z,4.72
2023-09-09T10:07:20.220Z,5.05
2023-09-09T10:10:10.774Z,5.05
2023-09-09T10:12:49.624Z,4.93
2023-09-09T10:15:22.508Z,4.78
2023-09-09T10:17:54.206Z,6.20
2023-09-09T10:20:23.338Z,4.60
2023-09-09T10:22:51.321Z,6.13
2023-09-09T10:25:18.750Z,6.95
2023-09-09T10:27:47.938Z,4.93
2023-09-09T10:30:17.298Z,3.97
2023-09-09T10:32:47.848Z,4.22
2023-09-09T10:35:18.581Z,5.40
2023-09-09T10:37:47.806Z,4.65
2023-09-09T10:40:16.152Z,4.30
2023-09-09T10:42:44.973Z,4.53
2023-09-09T10:45:34.138Z,4.43
2023-09-09T10:48:07.784Z,3.88
2023-09-09T10:50:41.738Z,4.32
2023-09-09T10:53:30.142Z,4.60
2023-09-09T10:56:23.965Z,11.75
2023-09-09T10:58:55.209Z,5.10
2023-09-09T11:01:27.438Z,4.03
2023-09-09T11:03:54.641Z,3.65
2023-09-09T11:06:21.844Z,4.25
2023-09-09T11:08:49.472Z,5.05
2023-09-09T11:11:24.159Z,4.68
2023-09-09T11:14:04.286Z,4.32
2023-09-09T11:16:43.270Z,4.72
2023-09-09T11:19:17.608Z,6.25
2023-09-09T11:21:49.514Z,5.22
2023-09-09T11:24:16.704Z,3.97
2023-09-09T11:26:52.124Z,4.25
2023-09-09T11:29:36.333Z,3.58
2023-09-09T11:32:09.040Z,4.13
2023-09-09T11:34:36.502Z,4.80
2023-09-09T11:37:05.386Z,4.45
2023-09-09T11:39:42.839Z,4.55
2023-09-09T11:42:09.729Z,5.13
2023-09-09T11:44:42.486Z,5.00
2023-09-09T11:47:11.147Z,4.50
2023-09-09T11:49:41.648Z,4.72
2023-09-09T11:52:09.073Z,4.88
2023-09-09T11:54:36.818Z,3.92
2023-09-09T11:57:09.177Z,4.05
2023-09-09T11:59:52.060Z,4.50
2023-09-09T12:02:26.980Z,3.88
2023-09-09T12:05:02.890Z,4.03
2023-09-09T12:07:37.591Z,4.97
2023-09-09T12:10:14.104Z,3.88
2023-09-09T12:12:48.838Z,3.40
2023-09-09T12:15:16.899Z,4.13
2023-09-09T12:17:44.149Z,4.07
2023-09-09T12:20:11.604Z,5.88
2023-09-09T12:22:48.443Z,4.05
2023-09-09T12:25:36.235Z,4.55
2023-09-09T12:28:04.540Z,3.65
2023-09-09T12:30:44.202Z,3.83
2023-09-09T12:33:16.050Z,3.40
2023-09-09T12:35:52.028Z,4.20
2023-09-09T12:38:21.476Z,4.85
2023-09-09T12:40:54.918Z,4.00
2023-09-09T12:43:26.341Z,4.90
2023-09-09T12:45:56.849Z,3.92
2023-09-09T12:48:23.780Z,5.60
2023-09-09T12:50:50.586Z,4.53
2023-09-09T12:53:18.354Z,4.68
2023-09-09T12:55:45.975Z,3.63
2023-09-09T12:58:14.876Z,4.30
2023-09-09T13:00:41.867Z,6.00
2023-09-09T13:03:10.856Z,3.88
2023-09-09T13:05:40.011Z,4.10
2023-09-09T13:08:07.160Z,3.90
2023-09-09T13:10:33.992Z,4.45
2023-09-09T13:13:00.912Z,3.70
2023-09-09T13:15:28.440Z,4.00
2023-09-09T13:17:55.442Z,4.22
2023-09-09T13:20:22.713Z,3.95
2023-09-09T13:22:49.539Z,4.15
2023-09-09T13:25:16.749Z,6.40
2023-09-09T13:27:44.445Z,3.78
2023-09-09T13:30:11.907Z,4.00
2023-09-09T13:32:40.635Z,3.70
2023-09-09T13:35:09.464Z,4.20
2023-09-09T13:37:37.062Z,3.55
2023-09-09T13:40:04.722Z,3.63
2023-09-09T13:42:33.203Z,5.20
2023-09-09T13:45:10.815Z,4.75
2023-09-09T13:47:39.226Z,3.38
2023-09-09T13:50:07.959Z,3.90
2023-09-09T13:52:35.400Z,3.95
2023-09-09T13:55:04.281Z,4.60
2023-09-09T13:57:32.028Z,3.97
2023-09-09T13:59:59.093Z,3.75
2023-09-09T14:02:27.076Z,4.32
2023-09-09T14:04:54.477Z,3.95
2023-09-09T14:07:22.597Z,4.15
2023-09-09T14:09:50.545Z,6.93
2023-09-09T14:12:17.734Z,3.58
2023-09-09T14:14:44.886Z,4.18
2023-09-09T14:17:12.104Z,4.03
2023-09-09T14:19:39.818Z,5.05
2023-09-09T14:22:07.058Z,4.53
2023-09-09T14:24:34.275Z,4.03
2023-09-09T14:27:01.473Z,3.95
2023-09-09T14:29:28.794Z,4.75
2023-09-09T14:31:55.691Z,4.30
2023-09-09T14:34:22.896Z,6.72
2023-09-09T14:36:50.066Z,3.95
2023-09-09T14:39:16.906Z,3.90
2023-09-09T14:41:44.218Z,4.68
2023-09-09T14:44:11.457Z,5.25
2023-09-09T14:46:38.360Z,3.90
2023-09-09T14:49:05.587Z,6.13
2023-09-09T14:51:35.264Z,4.80
2023-09-09T14:54:03.846Z,4.75
2023-09-09T14:56:32.340Z,4.68
2023-09-09T14:58:59.888Z,4.32
2023-09-09T15:01:27.328Z,4.10
2023-09-09T15:03:54.642Z,3.88
2023-09-09T15:06:22.882Z,4.70
2023-09-09T15:08:52.895Z,3.70
2023-09-09T15:11:21.287Z,3.70
2023-09-09T15:13:50.054Z,4.57
2023-09-09T15:16:20.946Z,4.07
2023-09-09T15:18:48.385Z,4.10
2023-09-09T15:21:15.228Z,4.05
2023-09-09T15:23:42.408Z,4.50
2023-09-09T15:26:09.646Z,5.50
2023-09-09T15:28:36.581Z,6.50
2023-09-09T15:31:06.574Z,4.05
2023-09-09T15:33:33.992Z,3.35
2023-09-09T15:36:00.890Z,3.70
2023-09-09T15:38:28.778Z,4.20
2023-09-09T15:40:55.803Z,4.88
2023-09-09T15:43:22.796Z,6.35
2023-09-09T15:45:50.413Z,4.25
2023-09-09T15:48:17.851Z,4.63
2023-09-09T15:50:45.178Z,4.10
2023-09-09T15:53:12.291Z,6.28
2023-09-09T15:55:39.155Z,4.50
2023-09-09T15:58:06.659Z,4.13
2023-09-09T16:00:33.873Z,4.63
2023-09-09T16:03:00.834Z,3.95
2023-09-09T16:05:31.656Z,4.07
2023-09-09T16:07:59.230Z,4.80
2023-09-09T16:10:27.146Z,4.28
2023-09-09T16:12:54.483Z,4.88
2023-09-09T16:15:21.653Z,5.65
2023-09-09T16:17:48.876Z,4.38
2023-09-09T16:20:16.424Z,9.90
2023-09-09T16:22:44.679Z,5.97
2023-09-09T16:25:12.416Z,4.95
2023-09-09T16:27:41.779Z,7.88
2023-09-09T16:30:10.814Z,7.70
2023-09-09T16:32:38.222Z,6.32
2023-09-09T16:35:05.645Z,6.82
2023-09-09T16:37:32.515Z,6.60
2023-09-09T16:39:59.711Z,6.65
2023-09-09T16:42:27.241Z,11.88
2023-09-09T16:44:54.516Z,7.70
2023-09-09T16:47:21.719Z,6.55
2023-09-09T16:49:49.631Z,8.13
2023-09-09T16:52:16.969Z,6.32
2023-09-09T16:54:43.880Z,8.55
2023-09-09T16:57:11.285Z,6.00
2023-09-09T16:59:40.517Z,5.78
2023-09-09T17:02:09.098Z,8.38
2023-09-09T17:04:36.748Z,7.82
2023-09-09T17:07:03.872Z,5.25
2023-09-09T17:09:32.443Z,4.63
2023-09-09T17:11:59.243Z,5.75
2023-09-09T17:14:26.817Z,8.38
2023-09-09T17:16:54.116Z,7.53
2023-09-09T17:19:21.361Z,7.07
2023-09-09T17:21:48.554Z,8.35
2023-09-09T17:24:15.319Z,6.45
2023-09-09T17:26:42.555Z,5.30
2023-09-09T17:29:09.477Z,6.97
2023-09-09T17:31:36.519Z,8.93
2023-09-09T17:34:03.608Z,8.48
2023-09-09T17:36:31.196Z,7.55
2023-09-09T17:39:06.249Z,8.70
2023-09-09T17:41:33.785Z,6.82
2023-09-09T17:44:01.808Z,9.88
2023-09-09T17:46:29.324Z,11.32
2023-09-09T17:48:58.498Z,9.98
2023-09-09T17:51:30.011Z,9.05
2023-09-09T17:53:56.961Z,9.23
2023-09-09T17:56:24.253Z,11.68
2023-09-09T17:58:53.723Z,11.75
2023-09-09T18:01:26.230Z,8.98
2023-09-09T18:03:57.851Z,10.50
2023-09-09T18:06:25.276Z,12.13
2023-09-09T18:08:53.292Z,12.50
2023-09-09T18:11:22.913Z,8.25
2023-09-09T18:13:50.604Z,9.05
2023-09-09T18:16:21.833Z,11.50
2023-09-09T18:18:48.676Z,10.68
2023-09-09T18:21:16.007Z,11.13
2023-09-09T18:23:43.213Z,12.98
2023-09-09T18:26:10.429Z,11.52
2023-09-09T18:28:37.198Z,9.75
2023-09-09T18:31:08.044Z,14.77
2023-09-09T18:33:34.938Z,14.15
2023-09-09T18:36:02.435Z,14.32
2023-09-09T18:38:29.802Z,12.73
2023-09-09T18:40:57.176Z,11.40
2023-09-09T18:43:24.418Z,11.90
2023-09-09T18:45:52.353Z,12.45
2023-09-09T18:48:19.770Z,11.50
2023-09-09T18:50:47.138Z,14.77
2023-09-09T18:53:14.735Z,9.60
2023-09-09T18:55:42.232Z,9.95
2023-09-09T18:58:09.728Z,17.73
2023-09-09T19:00:36.943Z,10.90
2023-09-09T19:03:04.621Z,11.43
2023-09-09T19:05:35.763Z,10.00
2023-09-09T19:08:02.713Z,11.57
2023-09-09T19:10:29.597Z,11.75
2023-09-09T19:12:56.398Z,12.50
2023-09-09T19:15:24.531Z,13.27
2023-09-09T19:17:51.940Z,11.98
2023-09-09T19:20:19.402Z,13.45
2023-09-09T19:22:50.437Z,16.20
2023-09-09T19:25:17.836Z,13.02
2023-09-09T19:27:48.283Z,11.88
2023-09-09T19:30:15.209Z,11.35
2023-09-09T19:32:42.695Z,14.70
2023-09-09T19:35:09.714Z,14.82
2023-09-09T19:37:37.775Z,17.17
2023-09-09T19:40:05.395Z,16.48
2023-09-09T19:42:32.431Z,14.32
2023-09-09T19:44:59.852Z,20.30
2023-09-09T19:47:27.080Z,16.80
2023-09-09T19:49:54.775Z,16.98
2023-09-09T19:52:22.163Z,14.73
2023-09-09T19:54:49.625Z,15.68
2023-09-09T19:57:16.591Z,17.65
2023-09-09T19:59:43.573Z,17.35
2023-09-09T20:02:10.989Z,17.05
2023-09-09T20:04:38.412Z,22.85
2023-09-09T20:07:05.596Z,18.30
2023-09-09T20:09:32.670Z,18.70
2023-09-09T20:12:03.036Z,18.00
2023-09-09T20:14:30.332Z,16.67
2023-09-09T20:16:57.109Z,22.08
2023-09-09T20:19:24.392Z,17.85
2023-09-09T20:21:51.659Z,15.32
2023-09-09T20:24:18.423Z,18.77
2023-09-09T20:26:45.658Z,20.08
2023-09-09T20:29:12.836Z,15.98
2023-09-09T20:31:40.078Z,16.23
2023-09-09T20:34:07.198Z,15.82
2023-09-09T20:36:35.296Z,15.38
2023-09-09T20:39:06.148Z,18.63
2023-09-09T20:41:33.387Z,17.73
2023-09-09T20:44:00.829Z,17.35
2023-09-09T20:46:28.081Z,14.48
2023-09-09T20:48:55.283Z,14.20
2023-09-09T20:51:22.533Z,17.15
2023-09-09T20:53:50.537Z,14.95
2023-09-09T20:56:18.929Z,15.30
2023-09-09T20:58:46.181Z,13.82
2023-09-09T21:01:13.057Z,15.50
2023-09-09T21:03:40.763Z,12.05
2023-09-09T21:06:08.370Z,15.50
2023-09-09T21:08:35.334Z,11.32
2023-09-09T21:11:02.614Z,11.93
2023-09-09T21:13:30.007Z,11.80
2023-09-09T21:15:59.121Z,13.38
2023-09-09T21:18:26.379Z,11.13
2023-09-09T21:20:53.200Z,14.48
2023-09-09T21:23:20.363Z,12.02
2023-09-09T21:25:47.360Z,13.13
2023-09-09T21:28:14.593Z,11.35
2023-09-09T21:30:42.499Z,13.20
2023-09-09T21:33:09.565Z,14.35
2023-09-09T21:35:36.468Z,17.85
2023-09-09T21:38:04.225Z,12.65
2023-09-09T21:40:31.147Z,13.10
2023-09-09T21:42:58.346Z,12.25
2023-09-09T21:45:25.795Z,12.43
2023-09-09T21:47:53.070Z,12.32
2023-09-09T21:50:20.569Z,11.88
2023-09-09T21:52:47.886Z,14.20
2023-09-09T21:55:15.099Z,12.40
2023-09-09T21:57:42.370Z,12.38
2023-09-09T22:00:24.026Z,10.95
2023-09-09T22:02:51.460Z,12.23
2023-09-09T22:05:18.983Z,11.07
2023-09-09T22:07:46.475Z,10.98
2023-09-09T22:10:15.195Z,10.75
2023-09-09T22:12:42.622Z,12.27
2023-09-09T22:15:11.131Z,9.85
2023-09-09T22:17:39.523Z,10.70
2023-09-09T22:20:09.460Z,11.98
2023-09-09T22:22:38.905Z,9.55
2023-09-09T22:25:14.077Z,13.15
2023-09-09T22:27:41.118Z,12.10
2023-09-09T22:30:09.168Z,10.93
2023-09-09T22:32:36.516Z,9.60
2023-09-09T22:35:05.755Z,9.45
2023-09-09T22:37:33.530Z,11.63
2023-09-09T22:40:00.924Z,11.20
2023-09-09T22:42:28.157Z,11.50
2023-09-09T22:44:55.377Z,10.25
2023-09-09T22:47:23.388Z,10.38
2023-09-09T22:49:53.909Z,11.23
2023-09-09T22:52:21.323Z,10.10
2023-09-09T22:54:49.867Z,10.30
2023-09-09T22:57:17.194Z,10.48
2023-09-09T22:59:44.456Z,9.48
2023-09-09T23:02:11.734Z,10.95
2023-09-09T23:04:39.171Z,9.65
2023-09-09T23:07:06.220Z,10.15
2023-09-09T23:09:33.026Z,10.32
2023-09-09T23:12:00.871Z,10.55
2023-09-09T23:14:28.037Z,16.73
2023-09-09T23:16:55.365Z,10.70
2023-09-09T23:19:22.616Z,10.55
2023-09-09T23:21:49.800Z,10.35
2023-09-09T23:24:16.802Z,9.70
2023-09-09T23:26:43.675Z,9.45
2023-09-09T23:29:11.023Z,10.55
2023-09-09T23:31:39.520Z,13.48
2023-09-09T23:34:06.889Z,10.30
2023-09-09T23:36:33.728Z,9.70
2023-09-09T23:39:07.236Z,10.45
2023-09-09T23:41:34.480Z,11.70
2023-09-09T23:44:01.760Z,11.18
2023-09-09T23:46:30.436Z,10.50
2023-09-09T23:48:57.966Z,11.10
2023-09-09T23:51:25.097Z,10.70
2023-09-09T23:53:53.242Z,9.88
2023-09-09T23:56:20.984Z,10.40
2023-09-09T23:58:48.193Z,12.02
